Flight Track Log - Related Links

Times and Time Zones

All times are in EDT time to prevent confusion due to time zone crossing. See the MTN8324 flight status page for this flight to view local times or setup timezone preferences in your user account.

Time Position Orientation Groundspeed Altitude Reporting Facility
EDT Latitude Longitude Course Direction KTS MPH feet Rate Location/Type
Fri 04:31:35 AM 40.6500 -74.1833 311° West 154 177 1,800  Level New York TRACON
Fri 04:32:35 AM 40.6833 -74.2333 311° West 161 185 3,100 1,450 Climbing New York TRACON
Fri 04:33:35 AM 40.7167 -74.2500 339° North 168 193 4,700 1,600 Climbing New York TRACON
Fri 04:34:35 AM 40.7667 -74.2667 346° North 179 206 6,300 1,650 Climbing New York TRACON
Fri 04:35:35 AM 40.8167 -74.3000 333° Northwest 184 212 8,000 1,700 Climbing New York TRACON
Fri 04:36:35 AM 40.8667 -74.3167 346° North 182 209 9,700 1,700 Climbing New York TRACON
Fri 04:37:35 AM 40.9167 -74.3333 346° North 179 206 11,400 1,190 Climbing New York TRACON
Fri 04:38:36 AM 40.9500 -74.3667 323° Northwest 193 222 12,100 347 Climbing New York TRACON
Fri 04:39:36 AM 41.0167 -74.4000 339° North 238 274 12,100 -80 Level New York TRACON
Fri 04:39:51 AM 41.0286 -74.4044 344° North 247 284 12,000 -79 Descending New York Center
Fri 04:40:52 AM 41.1047 -74.4361 343° North 270 311 12,000  Level New York Center
Fri 04:41:53 AM 41.1764 -74.4758 337° Northwest 290 334 12,000  Level New York Center
Fri 04:42:53 AM 41.2358 -74.5067 339° North 279 321 12,000  Level New York Center
Fri 04:43:53 AM 41.3117 -74.5442 340° North 268 308 12,000  Level New York Center
Fri 04:44:52 AM 41.3753 -74.5725 342° North 263 303 12,000 252 Level New York Center
Fri 04:45:52 AM 41.4358 -74.6314 324° Northwest 252 290 12,500 1,091 Climbing New York Center
Fri 04:46:53 AM 41.4589 -74.6881 299° West 213 245 14,200 1,438 Climbing New York Center
Fri 04:47:53 AM 41.4903 -74.7508 304° West 185 213 15,400 908 Climbing New York Center
Fri 04:48:52 AM 41.5136 -74.7992 303° West 185 213 16,000 300 Climbing New York Center
Fri 04:49:53 AM 41.5506 -74.8733 304° West 203 234 16,000 50 Level New York Center
Fri 04:50:51 AM 41.5872 -74.9533 302° West 230 265 16,100 51 Climbing New York Center
Fri 04:51:51 AM 41.6203 -75.0219 303° West 248 285 16,100  Level New York Center
Fri 04:52:51 AM 41.6631 -75.1053 305° West 253 291 16,100  Level New York Center
Fri 04:53:53 AM 41.6997 -75.1856 301° West 253 291 16,100  Level New York Center
Fri 04:54:54 AM 41.7386 -75.2603 305° West 253 291 16,100  Level New York Center
Fri 04:55:52 AM 41.7711 -75.3319 301° West 253 291 16,100  Level New York Center
Fri 04:56:52 AM 41.8097 -75.4125 303° West 253 291 16,100  Level New York Center
Fri 04:57:51 AM 41.8503 -75.4961 303° West 253 291 16,100  Level New York Center
Fri 04:58:52 AM 41.8886 -75.5742 303° West 253 291 16,100  Level New York Center
Fri 04:59:53 AM 41.9250 -75.6519 302° West 253 291 16,100  Level New York Center
Fri 05:00:53 AM 41.9633 -75.7300 303° West 253 291 16,100  Level New York Center
Fri 05:01:54 AM 41.9997 -75.8081 302° West 258 297 16,100  Level New York Center
Fri 05:02:53 AM 42.0342 -75.8806 303° West 258 297 16,100  Level New York Center
Fri 05:03:51 AM 42.0742 -75.9647 303° West 258 297 16,100  Level New York Center
Fri 05:04:54 AM 42.1103 -76.0431 302° West 252 290 16,100  Level New York Center
Fri 05:05:53 AM 42.1483 -76.1217 303° West 252 290 16,100  Level New York Center
Fri 05:06:53 AM 42.1822 -76.2000 300° West 252 290 16,100  Level New York Center
Fri 05:07:51 AM 42.2203 -76.2814 302° West 252 290 16,100  Level New York Center
Fri 05:08:54 AM 42.2539 -76.3628 299° West 257 296 16,100  Level New York Center
Fri 05:09:52 AM 42.2875 -76.4439 299° West 257 296 16,100  Level New York Center
Fri 05:10:51 AM 42.3217 -76.5142 303° West 257 296 16,100  Level New York Center
Fri 05:11:33 AM 42.3492 -76.5819 299° West 256 295 16,100 -59 Level Cleveland Center
Fri 05:12:33 AM 42.3831 -76.6614 300° West 256 295 16,000 -50 Descending Cleveland Center
Fri 05:13:33 AM 42.4169 -76.7408 300° West 256 295 16,000  Level Cleveland Center
Fri 05:14:33 AM 42.4531 -76.8231 301° West 256 295 16,000  Level Cleveland Center
Fri 05:15:33 AM 42.4869 -76.9028 300° West 251 289 16,000  Level Cleveland Center
Fri 05:16:33 AM 42.5208 -76.9825 300° West 251 289 16,000  Level Cleveland Center
Fri 05:17:33 AM 42.5544 -77.0625 300° West 246 283 16,000  Level Cleveland Center
Fri 05:18:33 AM 42.5861 -77.1397 299° West 246 283 16,000  Level Cleveland Center
Fri 05:19:33 AM 42.6197 -77.2197 300° West 246 283 16,000  Level Cleveland Center
Fri 05:20:33 AM 42.6533 -77.2997 300° West 246 283 16,000  Level Cleveland Center
Fri 05:21:33 AM 42.6867 -77.3800 299° West 241 277 16,000  Level Cleveland Center
Fri 05:22:33 AM 42.7203 -77.4603 300° West 241 277 16,000  Level Cleveland Center
Fri 05:23:33 AM 42.7514 -77.5378 299° West 241 277 16,000  Level Cleveland Center
Fri 05:24:33 AM 42.7825 -77.6069 302° West 241 277 16,000 -350 Level Cleveland Center
Fri 05:25:33 AM 42.8158 -77.6906 299° West 241 277 15,300 -900 Descending Cleveland Center
Fri 05:26:33 AM 42.8408 -77.7769 292° West 241 277 14,200 -1,150 Descending Cleveland Center
Fri 05:27:33 AM 42.8494 -77.8731 277° West 246 283 13,000 -1,350 Descending Cleveland Center
Fri 05:28:33 AM 42.8597 -77.9575 279° West 246 283 11,500 -1,000 Descending Cleveland Center
Fri 05:29:33 AM 42.8658 -78.0367 276° West 228 262 11,000 -250 Descending Cleveland Center
Fri 05:30:33 AM 42.8444 -78.1139 249° West 214 246 11,000 -100 Level Cleveland Center
Fri 05:31:33 AM 42.8317 -78.1994 259° West 225 259 10,800 -950 Descending Cleveland Center
Fri 05:32:33 AM 42.8147 -78.2878 255° West 239 275 9,100 -1,850 Descending Cleveland Center
Fri 05:33:33 AM 42.8097 -78.3586 265° West 217 250 7,100 -2,100 Descending Cleveland Center
Fri 05:34:33 AM 42.8175 -78.4319 278° West 181 208 4,900 -1,750 Descending Cleveland Center
Fri 05:35:33 AM 42.8250 -78.5025 278° West 181 208 3,600 -676 Descending Cleveland Center
Fri 05:37:57 AM 42.8833 -78.6167 305° West 148 170 2,600 -529 Descending Buffalo TRACON
Fri 05:38:57 AM 42.9000 -78.6667 294° West 139 160 1,800 -700 Descending Buffalo TRACON
Fri 05:39:57 AM 42.9167 -78.7000 304° West 102 117 1,200 -600 Descending Buffalo TRACON

Login

Don't have an account? Register now (free) for customized features, flight alerts, and more!